sensor_id;sensor_type;location;lat;lon;timestamp;P1;durP1;ratioP1;P2;durP2;ratioP2
13832;SDS011;6987;19.472;-99.276;2022-09-30T00:01:31;1.20;;;1.20;;
13832;SDS011;6987;19.472;-99.276;2022-09-30T00:04:01;1.80;;;1.58;;
13832;SDS011;6987;19.472;-99.276;2022-09-30T00:06:30;1.63;;;1.52;;
13832;SDS011;6987;19.472;-99.276;2022-09-30T00:09:01;1.10;;;1.10;;
13832;SDS011;6987;19.472;-99.276;2022-09-30T00:11:31;1.23;;;1.00;;
13832;SDS011;6987;19.472;-99.276;2022-09-30T00:14:00;1.08;;;1.00;;
13832;SDS011;6987;19.472;-99.276;2022-09-30T00:16:30;2.75;;;1.60;;
13832;SDS011;6987;19.472;-99.276;2022-09-30T00:18:59;2.63;;;1.50;;
13832;SDS011;6987;19.472;-99.276;2022-09-30T00:21:28;1.05;;;1.00;;
13832;SDS011;6987;19.472;-99.276;2022-09-30T00:23:58;1.65;;;1.33;;
13832;SDS011;6987;19.472;-99.276;2022-09-30T00:26:29;1.30;;;1.20;;
13832;SDS011;6987;19.472;-99.276;2022-09-30T00:28:58;3.50;;;1.15;;
13832;SDS011;6987;19.472;-99.276;2022-09-30T00:31:28;2.42;;;0.80;;
13832;SDS011;6987;19.472;-99.276;2022-09-30T00:33:57;1.70;;;1.20;;
13832;SDS011;6987;19.472;-99.276;2022-09-30T00:36:37;1.80;;;1.70;;
13832;SDS011;6987;19.472;-99.276;2022-09-30T00:39:08;1.73;;;1.63;;
13832;SDS011;6987;19.472;-99.276;2022-09-30T00:41:38;1.60;;;1.23;;
13832;SDS011;6987;19.472;-99.276;2022-09-30T00:46:54;1.25;;;1.15;;
13832;SDS011;6987;19.472;-99.276;2022-09-30T00:49:24;1.15;;;1.15;;
13832;SDS011;6987;19.472;-99.276;2022-09-30T00:51:53;2.30;;;1.60;;
13832;SDS011;6987;19.472;-99.276;2022-09-30T00:54:24;1.50;;;1.40;;
13832;SDS011;6987;19.472;-99.276;2022-09-30T00:56:56;1.65;;;1.48;;
13832;SDS011;6987;19.472;-99.276;2022-09-30T00:59:26;2.03;;;1.42;;
13832;SDS011;6987;19.472;-99.276;2022-09-30T01:01:58;1.60;;;1.50;;
13832;SDS011;6987;19.472;-99.276;2022-09-30T01:04:27;1.15;;;1.10;;
13832;SDS011;6987;19.472;-99.276;2022-09-30T01:06:58;4.03;;;1.20;;
13832;SDS011;6987;19.472;-99.276;2022-09-30T01:09:30;1.20;;;1.10;;
13832;SDS011;6987;19.472;-99.276;2022-09-30T01:12:01;4.90;;;1.27;;
13832;SDS011;6987;19.472;-99.276;2022-09-30T01:14:31;1.10;;;1.10;;
13832;SDS011;6987;19.472;-99.276;2022-09-30T01:17:01;1.15;;;1.05;;
13832;SDS011;6987;19.472;-99.276;2022-09-30T01:19:52;1.30;;;1.20;;
13832;SDS011;6987;19.472;-99.276;2022-09-30T01:22:32;1.33;;;1.27;;
13832;SDS011;6987;19.472;-99.276;2022-09-30T01:25:12;3.35;;;1.13;;
13832;SDS011;6987;19.472;-99.276;2022-09-30T01:28:07;1.10;;;1.10;;
13832;SDS011;6987;19.472;-99.276;2022-09-30T01:30:46;5.07;;;1.10;;
13832;SDS011;6987;19.472;-99.276;2022-09-30T01:33:18;2.13;;;0.80;;
13832;SDS011;6987;19.472;-99.276;2022-09-30T01:36:00;1.17;;;1.08;;
13832;SDS011;6987;19.472;-99.276;2022-09-30T01:38:35;2.05;;;1.75;;
13832;SDS011;6987;19.472;-99.276;2022-09-30T01:41:09;1.50;;;1.40;;
13832;SDS011;6987;19.472;-99.276;2022-09-30T01:43:41;1.25;;;1.20;;
13832;SDS011;6987;19.472;-99.276;2022-09-30T01:46:17;1.60;;;1.10;;
13832;SDS011;6987;19.472;-99.276;2022-09-30T01:48:49;1.58;;;1.48;;
13832;SDS011;6987;19.472;-99.276;2022-09-30T01:51:24;1.52;;;1.42;;
13832;SDS011;6987;19.472;-99.276;2022-09-30T01:53:55;1.10;;;1.10;;
13832;SDS011;6987;19.472;-99.276;2022-09-30T01:56:27;1.67;;;1.58;;
13832;SDS011;6987;19.472;-99.276;2022-09-30T01:58:59;2.55;;;1.70;;
13832;SDS011;6987;19.472;-99.276;2022-09-30T02:01:32;2.03;;;1.25;;
13832;SDS011;6987;19.472;-99.276;2022-09-30T02:04:02;3.05;;;1.52;;
13832;SDS011;6987;19.472;-99.276;2022-09-30T02:06:34;1.58;;;1.50;;
13832;SDS011;6987;19.472;-99.276;2022-09-30T02:09:03;2.28;;;2.17;;
13832;SDS011;6987;19.472;-99.276;2022-09-30T02:11:34;1.70;;;1.60;;
13832;SDS011;6987;19.472;-99.276;2022-09-30T02:14:04;2.97;;;2.13;;
13832;SDS011;6987;19.472;-99.276;2022-09-30T02:16:38;5.93;;;2.13;;
13832;SDS011;6987;19.472;-99.276;2022-09-30T02:19:10;4.05;;;1.83;;
13832;SDS011;6987;19.472;-99.276;2022-09-30T02:21:43;2.03;;;1.90;;
13832;SDS011;6987;19.472;-99.276;2022-09-30T02:24:13;1.92;;;1.75;;
13832;SDS011;6987;19.472;-99.276;2022-09-30T02:26:43;3.13;;;2.28;;
13832;SDS011;6987;19.472;-99.276;2022-09-30T02:29:14;2.17;;;1.90;;
13832;SDS011;6987;19.472;-99.276;2022-09-30T02:31:47;4.18;;;1.90;;
13832;SDS011;6987;19.472;-99.276;2022-09-30T02:34:18;1.38;;;1.38;;
13832;SDS011;6987;19.472;-99.276;2022-09-30T02:36:49;1.73;;;1.60;;
13832;SDS011;6987;19.472;-99.276;2022-09-30T02:39:21;2.17;;;2.00;;
13832;SDS011;6987;19.472;-99.276;2022-09-30T02:41:54;1.63;;;1.63;;
13832;SDS011;6987;19.472;-99.276;2022-09-30T02:44:25;4.07;;;1.88;;
13832;SDS011;6987;19.472;-99.276;2022-09-30T02:47:03;1.90;;;1.80;;
13832;SDS011;6987;19.472;-99.276;2022-09-30T02:49:38;2.47;;;2.28;;
13832;SDS011;6987;19.472;-99.276;2022-09-30T02:52:13;2.47;;;2.10;;
13832;SDS011;6987;19.472;-99.276;2022-09-30T02:54:47;2.63;;;2.35;;
13832;SDS011;6987;19.472;-99.276;2022-09-30T02:57:18;2.08;;;1.90;;
13832;SDS011;6987;19.472;-99.276;2022-09-30T02:59:50;3.88;;;2.05;;
13832;SDS011;6987;19.472;-99.276;2022-09-30T03:02:21;2.08;;;1.63;;
13832;SDS011;6987;19.472;-99.276;2022-09-30T03:04:50;1.83;;;1.73;;
13832;SDS011;6987;19.472;-99.276;2022-09-30T03:07:19;1.80;;;1.58;;
13832;SDS011;6987;19.472;-99.276;2022-09-30T03:09:48;2.08;;;1.98;;
13832;SDS011;6987;19.472;-99.276;2022-09-30T03:12:21;1.77;;;1.67;;
13832;SDS011;6987;19.472;-99.276;2022-09-30T03:15:06;2.65;;;1.98;;
13832;SDS011;6987;19.472;-99.276;2022-09-30T03:17:47;3.08;;;2.20;;
13832;SDS011;6987;19.472;-99.276;2022-09-30T03:20:29;1.90;;;1.67;;
13832;SDS011;6987;19.472;-99.276;2022-09-30T03:25:55;1.73;;;1.30;;
13832;SDS011;6987;19.472;-99.276;2022-09-30T03:28:28;1.90;;;1.73;;
13832;SDS011;6987;19.472;-99.276;2022-09-30T03:31:01;1.75;;;1.65;;
13832;SDS011;6987;19.472;-99.276;2022-09-30T03:33:34;1.90;;;1.80;;
13832;SDS011;6987;19.472;-99.276;2022-09-30T03:36:06;1.83;;;1.73;;
13832;SDS011;6987;19.472;-99.276;2022-09-30T03:38:38;2.20;;;2.10;;
13832;SDS011;6987;19.472;-99.276;2022-09-30T03:41:11;2.60;;;1.98;;
13832;SDS011;6987;19.472;-99.276;2022-09-30T03:43:44;2.05;;;1.70;;
13832;SDS011;6987;19.472;-99.276;2022-09-30T03:46:16;2.05;;;1.85;;
13832;SDS011;6987;19.472;-99.276;2022-09-30T03:48:48;2.00;;;1.90;;
13832;SDS011;6987;19.472;-99.276;2022-09-30T03:51:18;2.15;;;2.05;;
13832;SDS011;6987;19.472;-99.276;2022-09-30T03:53:47;1.85;;;1.75;;
13832;SDS011;6987;19.472;-99.276;2022-09-30T03:56:23;1.88;;;1.73;;
13832;SDS011;6987;19.472;-99.276;2022-09-30T03:58:53;1.92;;;1.73;;
13832;SDS011;6987;19.472;-99.276;2022-09-30T04:01:22;1.60;;;1.60;;
13832;SDS011;6987;19.472;-99.276;2022-09-30T04:03:52;2.03;;;1.92;;
13832;SDS011;6987;19.472;-99.276;2022-09-30T04:06:21;3.42;;;1.85;;
13832;SDS011;6987;19.472;-99.276;2022-09-30T04:08:51;1.88;;;1.77;;
13832;SDS011;6987;19.472;-99.276;2022-09-30T04:11:20;1.92;;;1.83;;
13832;SDS011;6987;19.472;-99.276;2022-09-30T04:13:49;1.83;;;1.70;;
13832;SDS011;6987;19.472;-99.276;2022-09-30T04:16:17;4.82;;;1.90;;
13832;SDS011;6987;19.472;-99.276;2022-09-30T04:18:46;3.35;;;1.73;;
13832;SDS011;6987;19.472;-99.276;2022-09-30T04:21:17;2.50;;;2.03;;
13832;SDS011;6987;19.472;-99.276;2022-09-30T04:23:46;1.88;;;1.77;;
13832;SDS011;6987;19.472;-99.276;2022-09-30T04:26:15;2.03;;;1.92;;
13832;SDS011;6987;19.472;-99.276;2022-09-30T04:28:44;2.00;;;1.88;;
13832;SDS011;6987;19.472;-99.276;2022-09-30T04:31:13;1.95;;;1.85;;
13832;SDS011;6987;19.472;-99.276;2022-09-30T04:33:44;1.98;;;1.80;;
13832;SDS011;6987;19.472;-99.276;2022-09-30T04:36:13;1.80;;;1.70;;
13832;SDS011;6987;19.472;-99.276;2022-09-30T04:38:43;1.52;;;1.42;;
13832;SDS011;6987;19.472;-99.276;2022-09-30T04:41:12;2.08;;;1.98;;
13832;SDS011;6987;19.472;-99.276;2022-09-30T04:43:42;3.78;;;2.13;;
13832;SDS011;6987;19.472;-99.276;2022-09-30T04:46:11;2.05;;;1.95;;
13832;SDS011;6987;19.472;-99.276;2022-09-30T04:48:40;1.80;;;1.70;;
13832;SDS011;6987;19.472;-99.276;2022-09-30T04:51:10;2.13;;;1.83;;
13832;SDS011;6987;19.472;-99.276;2022-09-30T04:53:39;1.73;;;1.63;;
13832;SDS011;6987;19.472;-99.276;2022-09-30T04:56:10;1.77;;;1.67;;
13832;SDS011;6987;19.472;-99.276;2022-09-30T04:58:39;2.88;;;1.95;;
13832;SDS011;6987;19.472;-99.276;2022-09-30T05:01:09;3.17;;;1.90;;
13832;SDS011;6987;19.472;-99.276;2022-09-30T05:03:38;2.03;;;1.92;;
13832;SDS011;6987;19.472;-99.276;2022-09-30T05:06:08;1.88;;;1.77;;
13832;SDS011;6987;19.472;-99.276;2022-09-30T05:08:37;2.35;;;2.10;;
13832;SDS011;6987;19.472;-99.276;2022-09-30T05:11:07;1.70;;;1.60;;
13832;SDS011;6987;19.472;-99.276;2022-09-30T05:13:38;2.13;;;1.83;;
13832;SDS011;6987;19.472;-99.276;2022-09-30T05:16:08;1.95;;;1.85;;
13832;SDS011;6987;19.472;-99.276;2022-09-30T05:18:37;2.20;;;2.10;;
13832;SDS011;6987;19.472;-99.276;2022-09-30T05:21:10;1.95;;;1.85;;
13832;SDS011;6987;19.472;-99.276;2022-09-30T05:23:39;1.88;;;1.75;;
13832;SDS011;6987;19.472;-99.276;2022-09-30T05:26:08;1.70;;;1.60;;
13832;SDS011;6987;19.472;-99.276;2022-09-30T05:28:39;3.33;;;1.38;;
13832;SDS011;6987;19.472;-99.276;2022-09-30T05:31:07;2.33;;;1.80;;
13832;SDS011;6987;19.472;-99.276;2022-09-30T05:33:36;1.92;;;1.83;;
13832;SDS011;6987;19.472;-99.276;2022-09-30T05:36:06;2.10;;;1.60;;
13832;SDS011;6987;19.472;-99.276;2022-09-30T05:38:35;2.75;;;1.80;;
13832;SDS011;6987;19.472;-99.276;2022-09-30T05:41:05;2.10;;;2.00;;
13832;SDS011;6987;19.472;-99.276;2022-09-30T05:43:39;3.67;;;2.40;;
13832;SDS011;6987;19.472;-99.276;2022-09-30T05:46:09;2.65;;;2.45;;
13832;SDS011;6987;19.472;-99.276;2022-09-30T05:48:38;2.65;;;2.50;;
13832;SDS011;6987;19.472;-99.276;2022-09-30T05:51:07;2.42;;;2.33;;
13832;SDS011;6987;19.472;-99.276;2022-09-30T05:53:37;2.95;;;2.75;;
13832;SDS011;6987;19.472;-99.276;2022-09-30T05:56:07;3.70;;;2.15;;
13832;SDS011;6987;19.472;-99.276;2022-09-30T05:58:36;3.22;;;2.92;;
13832;SDS011;6987;19.472;-99.276;2022-09-30T06:01:07;2.78;;;2.58;;
13832;SDS011;6987;19.472;-99.276;2022-09-30T06:03:36;3.60;;;2.67;;
13832;SDS011;6987;19.472;-99.276;2022-09-30T06:06:05;2.65;;;2.28;;
13832;SDS011;6987;19.472;-99.276;2022-09-30T06:08:34;2.53;;;2.10;;
13832;SDS011;6987;19.472;-99.276;2022-09-30T06:11:06;2.53;;;2.35;;
13832;SDS011;6987;19.472;-99.276;2022-09-30T06:13:37;2.78;;;2.58;;
13832;SDS011;6987;19.472;-99.276;2022-09-30T06:16:08;6.43;;;2.60;;
13832;SDS011;6987;19.472;-99.276;2022-09-30T06:18:37;2.92;;;2.42;;
13832;SDS011;6987;19.472;-99.276;2022-09-30T06:21:08;2.40;;;2.30;;
13832;SDS011;6987;19.472;-99.276;2022-09-30T06:23:37;2.58;;;2.38;;
13832;SDS011;6987;19.472;-99.276;2022-09-30T06:26:06;2.90;;;2.50;;
13832;SDS011;6987;19.472;-99.276;2022-09-30T06:28:36;2.20;;;2.10;;
13832;SDS011;6987;19.472;-99.276;2022-09-30T06:31:05;5.22;;;2.72;;
13832;SDS011;6987;19.472;-99.276;2022-09-30T06:33:35;3.53;;;3.03;;
13832;SDS011;6987;19.472;-99.276;2022-09-30T06:36:05;2.95;;;2.75;;
13832;SDS011;6987;19.472;-99.276;2022-09-30T06:38:34;5.47;;;2.53;;
13832;SDS011;6987;19.472;-99.276;2022-09-30T06:41:04;2.20;;;2.10;;
13832;SDS011;6987;19.472;-99.276;2022-09-30T06:43:33;2.85;;;2.65;;
13832;SDS011;6987;19.472;-99.276;2022-09-30T06:46:02;2.50;;;2.30;;
13832;SDS011;6987;19.472;-99.276;2022-09-30T06:48:31;2.42;;;2.33;;
13832;SDS011;6987;19.472;-99.276;2022-09-30T06:51:01;3.00;;;2.53;;
13832;SDS011;6987;19.472;-99.276;2022-09-30T06:53:30;3.15;;;2.38;;
13832;SDS011;6987;19.472;-99.276;2022-09-30T06:56:00;2.42;;;2.22;;
13832;SDS011;6987;19.472;-99.276;2022-09-30T06:58:29;3.63;;;2.65;;
13832;SDS011;6987;19.472;-99.276;2022-09-30T07:00:59;3.20;;;2.47;;
13832;SDS011;6987;19.472;-99.276;2022-09-30T07:03:29;2.50;;;2.40;;
13832;SDS011;6987;19.472;-99.276;2022-09-30T07:05:58;2.90;;;2.70;;
13832;SDS011;6987;19.472;-99.276;2022-09-30T07:08:29;2.97;;;2.65;;
13832;SDS011;6987;19.472;-99.276;2022-09-30T07:10:59;2.78;;;2.58;;
13832;SDS011;6987;19.472;-99.276;2022-09-30T07:13:28;3.72;;;2.83;;
13832;SDS011;6987;19.472;-99.276;2022-09-30T07:15:57;3.33;;;2.95;;
13832;SDS011;6987;19.472;-99.276;2022-09-30T07:18:26;2.72;;;2.63;;
13832;SDS011;6987;19.472;-99.276;2022-09-30T07:20:55;3.28;;;2.90;;
13832;SDS011;6987;19.472;-99.276;2022-09-30T07:23:24;3.67;;;3.38;;
13832;SDS011;6987;19.472;-99.276;2022-09-30T07:25:55;4.30;;;3.00;;
13832;SDS011;6987;19.472;-99.276;2022-09-30T07:28:25;3.85;;;3.55;;
13832;SDS011;6987;19.472;-99.276;2022-09-30T07:30:56;6.63;;;3.50;;
13832;SDS011;6987;19.472;-99.276;2022-09-30T07:33:26;4.97;;;4.47;;
13832;SDS011;6987;19.472;-99.276;2022-09-30T07:35:58;3.97;;;3.65;;
13832;SDS011;6987;19.472;-99.276;2022-09-30T07:38:28;3.80;;;3.50;;
13832;SDS011;6987;19.472;-99.276;2022-09-30T07:41:00;4.03;;;3.53;;
13832;SDS011;6987;19.472;-99.276;2022-09-30T07:43:29;4.18;;;3.88;;
13832;SDS011;6987;19.472;-99.276;2022-09-30T07:46:04;3.35;;;3.15;;
13832;SDS011;6987;19.472;-99.276;2022-09-30T07:48:33;3.95;;;3.58;;
13832;SDS011;6987;19.472;-99.276;2022-09-30T07:51:19;3.70;;;3.50;;
13832;SDS011;6987;19.472;-99.276;2022-09-30T07:53:49;5.93;;;4.05;;
13832;SDS011;6987;19.472;-99.276;2022-09-30T07:56:20;4.20;;;3.80;;
13832;SDS011;6987;19.472;-99.276;2022-09-30T07:58:49;4.18;;;3.83;;
13832;SDS011;6987;19.472;-99.276;2022-09-30T08:01:20;3.97;;;3.60;;
13832;SDS011;6987;19.472;-99.276;2022-09-30T08:03:51;4.00;;;3.70;;
13832;SDS011;6987;19.472;-99.276;2022-09-30T08:06:20;4.63;;;3.45;;
13832;SDS011;6987;19.472;-99.276;2022-09-30T08:08:51;3.65;;;3.33;;
13832;SDS011;6987;19.472;-99.276;2022-09-30T08:11:21;4.15;;;3.55;;
13832;SDS011;6987;19.472;-99.276;2022-09-30T08:13:50;3.60;;;3.40;;
13832;SDS011;6987;19.472;-99.276;2022-09-30T08:16:20;3.80;;;3.50;;
13832;SDS011;6987;19.472;-99.276;2022-09-30T08:18:52;3.33;;;3.10;;
13832;SDS011;6987;19.472;-99.276;2022-09-30T08:21:21;4.82;;;3.60;;
13832;SDS011;6987;19.472;-99.276;2022-09-30T08:23:50;2.83;;;2.55;;
13832;SDS011;6987;19.472;-99.276;2022-09-30T08:26:19;3.78;;;3.53;;
13832;SDS011;6987;19.472;-99.276;2022-09-30T08:28:49;4.75;;;3.88;;
13832;SDS011;6987;19.472;-99.276;2022-09-30T08:31:19;3.63;;;3.33;;
13832;SDS011;6987;19.472;-99.276;2022-09-30T08:33:48;4.47;;;3.40;;
13832;SDS011;6987;19.472;-99.276;2022-09-30T08:36:17;3.58;;;3.38;;
13832;SDS011;6987;19.472;-99.276;2022-09-30T08:38:46;3.60;;;3.30;;
13832;SDS011;6987;19.472;-99.276;2022-09-30T08:41:18;5.53;;;3.95;;
13832;SDS011;6987;19.472;-99.276;2022-09-30T08:43:56;3.97;;;3.60;;
13832;SDS011;6987;19.472;-99.276;2022-09-30T08:46:31;6.38;;;3.80;;
13832;SDS011;6987;19.472;-99.276;2022-09-30T08:49:08;4.75;;;4.22;;
13832;SDS011;6987;19.472;-99.276;2022-09-30T08:51:41;3.55;;;3.35;;
13832;SDS011;6987;19.472;-99.276;2022-09-30T08:54:12;4.18;;;3.67;;
13832;SDS011;6987;19.472;-99.276;2022-09-30T08:56:42;4.35;;;3.95;;
13832;SDS011;6987;19.472;-99.276;2022-09-30T08:59:18;5.22;;;4.00;;
13832;SDS011;6987;19.472;-99.276;2022-09-30T09:01:50;10.38;;;4.47;;
13832;SDS011;6987;19.472;-99.276;2022-09-30T09:04:21;5.05;;;4.22;;
13832;SDS011;6987;19.472;-99.276;2022-09-30T09:06:50;6.47;;;4.38;;
13832;SDS011;6987;19.472;-99.276;2022-09-30T09:09:32;6.32;;;4.15;;
13832;SDS011;6987;19.472;-99.276;2022-09-30T09:12:06;7.03;;;4.20;;
13832;SDS011;6987;19.472;-99.276;2022-09-30T09:14:48;5.60;;;5.15;;
13832;SDS011;6987;19.472;-99.276;2022-09-30T09:17:22;8.63;;;5.13;;
13832;SDS011;6987;19.472;-99.276;2022-09-30T09:19:54;7.70;;;4.80;;
13832;SDS011;6987;19.472;-99.276;2022-09-30T09:22:26;5.25;;;4.85;;
13832;SDS011;6987;19.472;-99.276;2022-09-30T09:24:56;9.38;;;6.65;;
13832;SDS011;6987;19.472;-99.276;2022-09-30T09:27:26;8.55;;;6.10;;
13832;SDS011;6987;19.472;-99.276;2022-09-30T09:30:00;6.65;;;6.07;;
13832;SDS011;6987;19.472;-99.276;2022-09-30T09:32:32;7.15;;;6.55;;
13832;SDS011;6987;19.472;-99.276;2022-09-30T09:35:03;6.60;;;5.30;;
13832;SDS011;6987;19.472;-99.276;2022-09-30T09:37:36;7.78;;;6.40;;
13832;SDS011;6987;19.472;-99.276;2022-09-30T09:40:27;14.65;;;6.63;;
13832;SDS011;6987;19.472;-99.276;2022-09-30T09:43:12;7.65;;;6.50;;
13832;SDS011;6987;19.472;-99.276;2022-09-30T09:45:51;13.95;;;6.82;;
13832;SDS011;6987;19.472;-99.276;2022-09-30T09:48:23;11.60;;;7.45;;
13832;SDS011;6987;19.472;-99.276;2022-09-30T09:50:54;16.48;;;9.93;;
13832;SDS011;6987;19.472;-99.276;2022-09-30T09:53:39;14.07;;;9.43;;
13832;SDS011;6987;19.472;-99.276;2022-09-30T09:56:12;14.20;;;9.45;;
13832;SDS011;6987;19.472;-99.276;2022-09-30T10:01:32;16.67;;;12.10;;
13832;SDS011;6987;19.472;-99.276;2022-09-30T10:04:08;15.68;;;11.30;;
13832;SDS011;6987;19.472;-99.276;2022-09-30T10:06:44;15.80;;;11.75;;
13832;SDS011;6987;19.472;-99.276;2022-09-30T10:12:25;16.73;;;11.57;;
13832;SDS011;6987;19.472;-99.276;2022-09-30T10:14:56;13.00;;;11.52;;
13832;SDS011;6987;19.472;-99.276;2022-09-30T10:17:28;13.88;;;11.05;;
13832;SDS011;6987;19.472;-99.276;2022-09-30T10:19:58;17.85;;;11.77;;
13832;SDS011;6987;19.472;-99.276;2022-09-30T10:22:29;13.45;;;11.25;;
13832;SDS011;6987;19.472;-99.276;2022-09-30T10:27:55;13.43;;;9.85;;
13832;SDS011;6987;19.472;-99.276;2022-09-30T10:30:34;10.32;;;8.68;;
13832;SDS011;6987;19.472;-99.276;2022-09-30T10:33:13;10.90;;;8.98;;
13832;SDS011;6987;19.472;-99.276;2022-09-30T10:35:49;9.30;;;8.00;;
13832;SDS011;6987;19.472;-99.276;2022-09-30T10:38:20;10.70;;;7.68;;
13832;SDS011;6987;19.472;-99.276;2022-09-30T10:40:49;7.35;;;6.65;;
13832;SDS011;6987;19.472;-99.276;2022-09-30T10:43:19;10.18;;;7.80;;
13832;SDS011;6987;19.472;-99.276;2022-09-30T10:45:49;10.05;;;7.18;;
13832;SDS011;6987;19.472;-99.276;2022-09-30T10:48:22;9.40;;;7.55;;
13832;SDS011;6987;19.472;-99.276;2022-09-30T10:50:52;9.05;;;7.90;;
13832;SDS011;6987;19.472;-99.276;2022-09-30T10:53:21;8.52;;;7.55;;
13832;SDS011;6987;19.472;-99.276;2022-09-30T10:55:51;9.05;;;7.82;;
13832;SDS011;6987;19.472;-99.276;2022-09-30T10:58:22;10.65;;;7.65;;
13832;SDS011;6987;19.472;-99.276;2022-09-30T11:00:52;11.20;;;7.57;;
13832;SDS011;6987;19.472;-99.276;2022-09-30T11:03:26;9.85;;;8.20;;
13832;SDS011;6987;19.472;-99.276;2022-09-30T11:05:56;9.55;;;8.30;;
13832;SDS011;6987;19.472;-99.276;2022-09-30T11:08:29;10.30;;;7.78;;
13832;SDS011;6987;19.472;-99.276;2022-09-30T11:11:01;12.98;;;8.38;;
13832;SDS011;6987;19.472;-99.276;2022-09-30T11:13:36;11.65;;;8.85;;
13832;SDS011;6987;19.472;-99.276;2022-09-30T11:16:13;10.68;;;8.10;;
13832;SDS011;6987;19.472;-99.276;2022-09-30T11:18:46;11.18;;;7.63;;
13832;SDS011;6987;19.472;-99.276;2022-09-30T11:21:17;10.32;;;6.78;;
13832;SDS011;6987;19.472;-99.276;2022-09-30T11:23:47;7.88;;;7.07;;
13832;SDS011;6987;19.472;-99.276;2022-09-30T11:26:21;15.52;;;7.07;;
13832;SDS011;6987;19.472;-99.276;2022-09-30T11:28:54;11.77;;;7.40;;
13832;SDS011;6987;19.472;-99.276;2022-09-30T11:31:29;8.05;;;7.25;;
13832;SDS011;6987;19.472;-99.276;2022-09-30T11:34:11;7.82;;;7.03;;
13832;SDS011;6987;19.472;-99.276;2022-09-30T11:36:43;6.57;;;5.60;;
13832;SDS011;6987;19.472;-99.276;2022-09-30T11:42:08;6.07;;;5.50;;
13832;SDS011;6987;19.472;-99.276;2022-09-30T11:44:39;7.57;;;6.45;;
13832;SDS011;6987;19.472;-99.276;2022-09-30T11:47:22;7.72;;;5.30;;
13832;SDS011;6987;19.472;-99.276;2022-09-30T11:49:58;5.63;;;4.97;;
13832;SDS011;6987;19.472;-99.276;2022-09-30T11:52:32;5.25;;;4.75;;
13832;SDS011;6987;19.472;-99.276;2022-09-30T11:57:50;5.45;;;4.88;;
13832;SDS011;6987;19.472;-99.276;2022-09-30T12:00:22;4.38;;;3.97;;
13832;SDS011;6987;19.472;-99.276;2022-09-30T12:02:52;4.78;;;4.38;;
13832;SDS011;6987;19.472;-99.276;2022-09-30T12:05:25;4.70;;;4.40;;
13832;SDS011;6987;19.472;-99.276;2022-09-30T12:07:57;4.75;;;3.88;;
13832;SDS011;6987;19.472;-99.276;2022-09-30T12:10:28;7.00;;;5.13;;
13832;SDS011;6987;19.472;-99.276;2022-09-30T12:12:59;4.30;;;3.95;;
13832;SDS011;6987;19.472;-99.276;2022-09-30T12:15:29;6.40;;;4.80;;
13832;SDS011;6987;19.472;-99.276;2022-09-30T12:17:59;8.52;;;5.47;;
13832;SDS011;6987;19.472;-99.276;2022-09-30T12:20:31;6.78;;;4.75;;
13832;SDS011;6987;19.472;-99.276;2022-09-30T12:23:04;6.05;;;5.40;;
13832;SDS011;6987;19.472;-99.276;2022-09-30T12:25:39;7.85;;;6.20;;
13832;SDS011;6987;19.472;-99.276;2022-09-30T12:28:11;8.65;;;5.90;;
13832;SDS011;6987;19.472;-99.276;2022-09-30T12:31:12;7.78;;;6.25;;
13832;SDS011;6987;19.472;-99.276;2022-09-30T12:33:57;7.88;;;5.82;;
13832;SDS011;6987;19.472;-99.276;2022-09-30T12:36:37;10.40;;;7.90;;
13832;SDS011;6987;19.472;-99.276;2022-09-30T12:42:10;8.00;;;7.28;;
13832;SDS011;6987;19.472;-99.276;2022-09-30T12:47:35;7.97;;;6.97;;
13832;SDS011;6987;19.472;-99.276;2022-09-30T12:50:11;9.93;;;8.60;;
13832;SDS011;6987;19.472;-99.276;2022-09-30T12:52:42;11.02;;;7.45;;
13832;SDS011;6987;19.472;-99.276;2022-09-30T12:55:17;11.30;;;7.68;;
13832;SDS011;6987;19.472;-99.276;2022-09-30T12:57:47;13.35;;;8.15;;
13832;SDS011;6987;19.472;-99.276;2022-09-30T13:00:18;8.45;;;7.50;;
13832;SDS011;6987;19.472;-99.276;2022-09-30T13:02:48;15.88;;;9.65;;
13832;SDS011;6987;19.472;-99.276;2022-09-30T13:05:37;13.57;;;9.82;;
13832;SDS011;6987;19.472;-99.276;2022-09-30T13:08:23;11.82;;;9.82;;
13832;SDS011;6987;19.472;-99.276;2022-09-30T13:10:55;11.88;;;10.18;;
13832;SDS011;6987;19.472;-99.276;2022-09-30T13:13:24;11.57;;;10.45;;
13832;SDS011;6987;19.472;-99.276;2022-09-30T13:15:55;14.93;;;11.10;;
13832;SDS011;6987;19.472;-99.276;2022-09-30T13:24:02;14.52;;;10.50;;
13832;SDS011;6987;19.472;-99.276;2022-09-30T13:26:32;12.57;;;10.85;;
13832;SDS011;6987;19.472;-99.276;2022-09-30T13:32:01;13.32;;;11.07;;
13832;SDS011;6987;19.472;-99.276;2022-09-30T13:34:30;17.40;;;11.45;;
13832;SDS011;6987;19.472;-99.276;2022-09-30T13:37:00;12.45;;;10.65;;
13832;SDS011;6987;19.472;-99.276;2022-09-30T13:39:42;18.85;;;11.65;;
13832;SDS011;6987;19.472;-99.276;2022-09-30T13:42:13;13.00;;;10.80;;
13832;SDS011;6987;19.472;-99.276;2022-09-30T13:44:52;15.93;;;10.55;;
13832;SDS011;6987;19.472;-99.276;2022-09-30T13:47:25;13.98;;;10.68;;
13832;SDS011;6987;19.472;-99.276;2022-09-30T13:49:56;16.33;;;10.55;;
13832;SDS011;6987;19.472;-99.276;2022-09-30T13:52:27;13.32;;;10.48;;
13832;SDS011;6987;19.472;-99.276;2022-09-30T13:55:04;14.50;;;10.38;;
13832;SDS011;6987;19.472;-99.276;2022-09-30T13:57:35;14.45;;;10.75;;
13832;SDS011;6987;19.472;-99.276;2022-09-30T14:00:10;11.88;;;9.77;;
13832;SDS011;6987;19.472;-99.276;2022-09-30T14:05:51;14.43;;;10.57;;
13832;SDS011;6987;19.472;-99.276;2022-09-30T14:11:13;15.73;;;10.18;;
13832;SDS011;6987;19.472;-99.276;2022-09-30T14:13:45;13.55;;;10.40;;
13832;SDS011;6987;19.472;-99.276;2022-09-30T14:19:13;18.63;;;11.18;;
13832;SDS011;6987;19.472;-99.276;2022-09-30T14:21:44;14.95;;;11.88;;
13832;SDS011;6987;19.472;-99.276;2022-09-30T14:24:15;19.25;;;12.63;;
13832;SDS011;6987;19.472;-99.276;2022-09-30T14:26:50;16.08;;;11.40;;
13832;SDS011;6987;19.472;-99.276;2022-09-30T14:29:23;18.52;;;12.43;;
13832;SDS011;6987;19.472;-99.276;2022-09-30T14:31:54;18.88;;;13.65;;
13832;SDS011;6987;19.472;-99.276;2022-09-30T14:34:24;19.58;;;15.57;;
13832;SDS011;6987;19.472;-99.276;2022-09-30T14:36:58;20.38;;;14.75;;
13832;SDS011;6987;19.472;-99.276;2022-09-30T14:39:28;25.08;;;14.80;;
13832;SDS011;6987;19.472;-99.276;2022-09-30T14:42:00;22.50;;;15.40;;
13832;SDS011;6987;19.472;-99.276;2022-09-30T14:44:32;17.33;;;13.77;;
13832;SDS011;6987;19.472;-99.276;2022-09-30T14:47:02;21.20;;;13.68;;
13832;SDS011;6987;19.472;-99.276;2022-09-30T14:49:32;22.30;;;14.45;;
13832;SDS011;6987;19.472;-99.276;2022-09-30T14:52:04;18.38;;;14.18;;
13832;SDS011;6987;19.472;-99.276;2022-09-30T14:54:33;17.80;;;14.48;;
13832;SDS011;6987;19.472;-99.276;2022-09-30T14:57:15;23.08;;;15.82;;
13832;SDS011;6987;19.472;-99.276;2022-09-30T14:59:44;21.55;;;15.88;;
13832;SDS011;6987;19.472;-99.276;2022-09-30T15:02:14;23.42;;;16.00;;
13832;SDS011;6987;19.472;-99.276;2022-09-30T15:04:47;18.45;;;15.10;;
13832;SDS011;6987;19.472;-99.276;2022-09-30T15:07:16;20.25;;;15.23;;
13832;SDS011;6987;19.472;-99.276;2022-09-30T15:09:46;21.30;;;15.00;;
13832;SDS011;6987;19.472;-99.276;2022-09-30T15:12:18;20.45;;;15.43;;
13832;SDS011;6987;19.472;-99.276;2022-09-30T15:14:48;23.42;;;15.25;;
13832;SDS011;6987;19.472;-99.276;2022-09-30T15:17:17;20.42;;;14.43;;
13832;SDS011;6987;19.472;-99.276;2022-09-30T15:19:46;19.67;;;14.48;;
13832;SDS011;6987;19.472;-99.276;2022-09-30T15:22:15;19.73;;;15.30;;
13832;SDS011;6987;19.472;-99.276;2022-09-30T15:24:45;21.98;;;17.30;;
13832;SDS011;6987;19.472;-99.276;2022-09-30T15:27:16;20.40;;;16.48;;
13832;SDS011;6987;19.472;-99.276;2022-09-30T15:29:55;19.10;;;15.80;;
13832;SDS011;6987;19.472;-99.276;2022-09-30T15:32:24;25.60;;;17.08;;
13832;SDS011;6987;19.472;-99.276;2022-09-30T15:34:54;22.33;;;15.60;;
13832;SDS011;6987;19.472;-99.276;2022-09-30T15:37:23;20.58;;;16.67;;
13832;SDS011;6987;19.472;-99.276;2022-09-30T15:39:58;19.13;;;16.35;;